Saint-Bruno-De-Guigues, Canada
Current Conditions -  °F | °C
As of 11:00 AM on Monday 26 Jan 2015 (Local Time) from CYXR Reporting Station
Clear Clear  
Wind Chill: -29°   Ceiling: Unl
Heat Index: -17°   Visibility: 9mi
Dew Point: -22°   Wind: 5mph
Humidity: 76%   Direction: 110°ESE
Pressure: 30.13"   Gusts: NA
Location:  47.47°N, 79.43°W
Report Text: CYXR 261600Z AUTO 11004KT 9SM CLR M27/M30 A3013 RMK SLP236
Loading
Personal Weather Stations






























Interactive Weather Map New forecast layout! Learn more

10-Day Weather Forecast

Advertisements
Track Severe Weather on mobile